sensor_id;sensor_type;location;lat;lon;timestamp;P1;durP1;ratioP1;P2;durP2;ratioP2
10801;SDS011;5453;50.852;7.102;2022-08-21T00:01:16;6.22;;;3.90;;
10801;SDS011;5453;50.852;7.102;2022-08-21T00:03:52;8.05;;;4.00;;
10801;SDS011;5453;50.852;7.102;2022-08-21T00:06:24;8.50;;;3.90;;
10801;SDS011;5453;50.852;7.102;2022-08-21T00:08:57;6.38;;;3.63;;
10801;SDS011;5453;50.852;7.102;2022-08-21T00:11:30;6.13;;;3.63;;
10801;SDS011;5453;50.852;7.102;2022-08-21T00:14:03;7.88;;;4.07;;
10801;SDS011;5453;50.852;7.102;2022-08-21T00:16:37;8.00;;;3.97;;
10801;SDS011;5453;50.852;7.102;2022-08-21T00:19:09;5.95;;;3.38;;
10801;SDS011;5453;50.852;7.102;2022-08-21T00:21:42;7.53;;;3.80;;
10801;SDS011;5453;50.852;7.102;2022-08-21T00:24:14;7.25;;;3.53;;
10801;SDS011;5453;50.852;7.102;2022-08-21T00:26:48;7.28;;;3.67;;
10801;SDS011;5453;50.852;7.102;2022-08-21T00:29:21;6.55;;;3.65;;
10801;SDS011;5453;50.852;7.102;2022-08-21T00:34:28;7.05;;;3.88;;
10801;SDS011;5453;50.852;7.102;2022-08-21T00:37:01;5.53;;;3.50;;
10801;SDS011;5453;50.852;7.102;2022-08-21T00:39:34;7.65;;;4.10;;
10801;SDS011;5453;50.852;7.102;2022-08-21T00:42:08;7.00;;;3.70;;
10801;SDS011;5453;50.852;7.102;2022-08-21T00:44:45;5.97;;;3.80;;
10801;SDS011;5453;50.852;7.102;2022-08-21T00:47:19;7.00;;;3.55;;
10801;SDS011;5453;50.852;7.102;2022-08-21T00:49:52;7.60;;;4.07;;
10801;SDS011;5453;50.852;7.102;2022-08-21T00:52:25;6.03;;;3.63;;
10801;SDS011;5453;50.852;7.102;2022-08-21T00:55:01;5.93;;;3.63;;
10801;SDS011;5453;50.852;7.102;2022-08-21T00:57:38;8.40;;;4.07;;
10801;SDS011;5453;50.852;7.102;2022-08-21T01:00:16;6.85;;;3.72;;
10801;SDS011;5453;50.852;7.102;2022-08-21T01:02:51;7.72;;;4.28;;
10801;SDS011;5453;50.852;7.102;2022-08-21T01:05:25;7.47;;;4.28;;
10801;SDS011;5453;50.852;7.102;2022-08-21T01:07:58;6.82;;;4.03;;
10801;SDS011;5453;50.852;7.102;2022-08-21T01:10:30;6.45;;;3.75;;
10801;SDS011;5453;50.852;7.102;2022-08-21T01:13:05;5.78;;;3.70;;
10801;SDS011;5453;50.852;7.102;2022-08-21T01:15:41;6.35;;;3.63;;
10801;SDS011;5453;50.852;7.102;2022-08-21T01:18:18;7.15;;;3.50;;
10801;SDS011;5453;50.852;7.102;2022-08-21T01:23:39;7.20;;;3.42;;
10801;SDS011;5453;50.852;7.102;2022-08-21T01:26:15;6.43;;;3.15;;
10801;SDS011;5453;50.852;7.102;2022-08-21T01:28:54;7.10;;;3.17;;
10801;SDS011;5453;50.852;7.102;2022-08-21T01:31:31;8.63;;;3.97;;
10801;SDS011;5453;50.852;7.102;2022-08-21T01:34:04;5.53;;;3.42;;
10801;SDS011;5453;50.852;7.102;2022-08-21T01:36:38;6.13;;;3.65;;
10801;SDS011;5453;50.852;7.102;2022-08-21T01:39:10;6.38;;;3.60;;
10801;SDS011;5453;50.852;7.102;2022-08-21T01:41:43;6.78;;;3.45;;
10801;SDS011;5453;50.852;7.102;2022-08-21T01:44:19;7.57;;;3.92;;
10801;SDS011;5453;50.852;7.102;2022-08-21T01:46:52;6.50;;;3.38;;
10801;SDS011;5453;50.852;7.102;2022-08-21T01:49:26;7.38;;;3.55;;
10801;SDS011;5453;50.852;7.102;2022-08-21T01:52:00;7.90;;;3.88;;
10801;SDS011;5453;50.852;7.102;2022-08-21T01:54:34;8.38;;;4.25;;
10801;SDS011;5453;50.852;7.102;2022-08-21T01:57:07;6.93;;;3.85;;
10801;SDS011;5453;50.852;7.102;2022-08-21T01:59:40;7.43;;;4.18;;
10801;SDS011;5453;50.852;7.102;2022-08-21T02:02:12;6.75;;;3.80;;
10801;SDS011;5453;50.852;7.102;2022-08-21T02:04:46;6.63;;;4.22;;
10801;SDS011;5453;50.852;7.102;2022-08-21T02:07:20;5.90;;;3.70;;
10801;SDS011;5453;50.852;7.102;2022-08-21T02:09:53;5.32;;;3.30;;
10801;SDS011;5453;50.852;7.102;2022-08-21T02:12:25;6.80;;;3.45;;
10801;SDS011;5453;50.852;7.102;2022-08-21T02:14:57;5.55;;;3.33;;
10801;SDS011;5453;50.852;7.102;2022-08-21T02:17:36;6.28;;;3.75;;
10801;SDS011;5453;50.852;7.102;2022-08-21T02:20:20;7.25;;;3.90;;
10801;SDS011;5453;50.852;7.102;2022-08-21T02:22:56;5.60;;;3.53;;
10801;SDS011;5453;50.852;7.102;2022-08-21T02:25:29;6.18;;;3.40;;
10801;SDS011;5453;50.852;7.102;2022-08-21T02:28:02;7.05;;;3.50;;
10801;SDS011;5453;50.852;7.102;2022-08-21T02:30:39;5.70;;;3.30;;
10801;SDS011;5453;50.852;7.102;2022-08-21T02:33:14;4.78;;;3.17;;
10801;SDS011;5453;50.852;7.102;2022-08-21T02:35:48;6.75;;;3.63;;
10801;SDS011;5453;50.852;7.102;2022-08-21T02:38:25;6.30;;;3.63;;
10801;SDS011;5453;50.852;7.102;2022-08-21T02:41:03;5.18;;;3.42;;
10801;SDS011;5453;50.852;7.102;2022-08-21T02:43:38;6.60;;;3.58;;
10801;SDS011;5453;50.852;7.102;2022-08-21T02:46:11;6.97;;;3.70;;
10801;SDS011;5453;50.852;7.102;2022-08-21T02:48:47;5.25;;;3.15;;
10801;SDS011;5453;50.852;7.102;2022-08-21T02:51:20;6.80;;;3.47;;
10801;SDS011;5453;50.852;7.102;2022-08-21T02:53:54;6.55;;;3.45;;
10801;SDS011;5453;50.852;7.102;2022-08-21T02:56:27;5.60;;;3.55;;
10801;SDS011;5453;50.852;7.102;2022-08-21T02:58:59;5.03;;;3.17;;
10801;SDS011;5453;50.852;7.102;2022-08-21T03:01:31;5.00;;;3.47;;
10801;SDS011;5453;50.852;7.102;2022-08-21T03:04:04;6.65;;;3.47;;
10801;SDS011;5453;50.852;7.102;2022-08-21T03:06:36;6.82;;;3.20;;
10801;SDS011;5453;50.852;7.102;2022-08-21T03:09:10;6.53;;;3.60;;
10801;SDS011;5453;50.852;7.102;2022-08-21T03:11:42;5.00;;;3.58;;
10801;SDS011;5453;50.852;7.102;2022-08-21T03:14:14;7.45;;;3.47;;
10801;SDS011;5453;50.852;7.102;2022-08-21T03:16:47;6.45;;;3.60;;
10801;SDS011;5453;50.852;7.102;2022-08-21T03:19:19;5.93;;;3.50;;
10801;SDS011;5453;50.852;7.102;2022-08-21T03:21:52;5.55;;;3.45;;
10801;SDS011;5453;50.852;7.102;2022-08-21T03:24:25;7.30;;;3.13;;
10801;SDS011;5453;50.852;7.102;2022-08-21T03:26:58;7.30;;;3.08;;
10801;SDS011;5453;50.852;7.102;2022-08-21T03:29:30;5.22;;;3.30;;
10801;SDS011;5453;50.852;7.102;2022-08-21T03:32:02;6.70;;;3.88;;
10801;SDS011;5453;50.852;7.102;2022-08-21T03:34:35;5.80;;;3.03;;
10801;SDS011;5453;50.852;7.102;2022-08-21T03:37:09;5.28;;;3.17;;
10801;SDS011;5453;50.852;7.102;2022-08-21T03:39:45;5.93;;;3.40;;
10801;SDS011;5453;50.852;7.102;2022-08-21T03:42:18;5.53;;;3.38;;
10801;SDS011;5453;50.852;7.102;2022-08-21T03:44:50;8.88;;;3.50;;
10801;SDS011;5453;50.852;7.102;2022-08-21T03:47:23;8.05;;;3.95;;
10801;SDS011;5453;50.852;7.102;2022-08-21T03:49:56;5.03;;;3.00;;
10801;SDS011;5453;50.852;7.102;2022-08-21T03:52:29;6.82;;;3.72;;
10801;SDS011;5453;50.852;7.102;2022-08-21T03:55:03;7.72;;;3.30;;
10801;SDS011;5453;50.852;7.102;2022-08-21T03:57:36;6.35;;;3.50;;
10801;SDS011;5453;50.852;7.102;2022-08-21T04:00:09;7.35;;;3.67;;
10801;SDS011;5453;50.852;7.102;2022-08-21T04:02:44;12.55;;;3.95;;
10801;SDS011;5453;50.852;7.102;2022-08-21T04:05:17;7.97;;;3.58;;
10801;SDS011;5453;50.852;7.102;2022-08-21T04:07:59;7.32;;;3.72;;
10801;SDS011;5453;50.852;7.102;2022-08-21T04:10:36;5.35;;;3.42;;
10801;SDS011;5453;50.852;7.102;2022-08-21T04:13:10;7.22;;;3.80;;
10801;SDS011;5453;50.852;7.102;2022-08-21T04:15:43;6.72;;;3.85;;
10801;SDS011;5453;50.852;7.102;2022-08-21T04:18:15;9.85;;;4.38;;
10801;SDS011;5453;50.852;7.102;2022-08-21T04:20:49;8.07;;;3.90;;
10801;SDS011;5453;50.852;7.102;2022-08-21T04:23:23;8.20;;;3.95;;
10801;SDS011;5453;50.852;7.102;2022-08-21T04:25:57;7.25;;;3.97;;
10801;SDS011;5453;50.852;7.102;2022-08-21T04:28:30;8.50;;;3.72;;
10801;SDS011;5453;50.852;7.102;2022-08-21T04:31:03;5.38;;;3.40;;
10801;SDS011;5453;50.852;7.102;2022-08-21T04:33:35;6.88;;;3.80;;
10801;SDS011;5453;50.852;7.102;2022-08-21T04:36:08;6.07;;;3.88;;
10801;SDS011;5453;50.852;7.102;2022-08-21T04:38:41;6.63;;;3.90;;
10801;SDS011;5453;50.852;7.102;2022-08-21T04:41:14;6.53;;;3.67;;
10801;SDS011;5453;50.852;7.102;2022-08-21T04:43:47;6.32;;;3.90;;
10801;SDS011;5453;50.852;7.102;2022-08-21T04:46:20;7.90;;;3.70;;
10801;SDS011;5453;50.852;7.102;2022-08-21T04:48:52;6.07;;;3.13;;
10801;SDS011;5453;50.852;7.102;2022-08-21T04:51:25;5.00;;;3.42;;
10801;SDS011;5453;50.852;7.102;2022-08-21T04:54:02;6.07;;;3.55;;
10801;SDS011;5453;50.852;7.102;2022-08-21T04:56:41;5.38;;;3.30;;
10801;SDS011;5453;50.852;7.102;2022-08-21T04:59:17;4.97;;;3.42;;
10801;SDS011;5453;50.852;7.102;2022-08-21T05:01:54;6.45;;;3.63;;
10801;SDS011;5453;50.852;7.102;2022-08-21T05:04:28;8.38;;;3.72;;
10801;SDS011;5453;50.852;7.102;2022-08-21T05:07:05;8.27;;;3.83;;
10801;SDS011;5453;50.852;7.102;2022-08-21T05:09:44;7.07;;;4.03;;
10801;SDS011;5453;50.852;7.102;2022-08-21T05:12:18;6.28;;;3.63;;
10801;SDS011;5453;50.852;7.102;2022-08-21T05:14:50;6.22;;;3.85;;
10801;SDS011;5453;50.852;7.102;2022-08-21T05:17:23;5.53;;;3.35;;
10801;SDS011;5453;50.852;7.102;2022-08-21T05:19:55;5.63;;;3.33;;
10801;SDS011;5453;50.852;7.102;2022-08-21T05:22:27;7.75;;;3.63;;
10801;SDS011;5453;50.852;7.102;2022-08-21T05:24:59;6.53;;;3.97;;
10801;SDS011;5453;50.852;7.102;2022-08-21T05:27:33;5.38;;;3.70;;
10801;SDS011;5453;50.852;7.102;2022-08-21T05:30:08;6.65;;;3.55;;
10801;SDS011;5453;50.852;7.102;2022-08-21T05:32:42;6.38;;;3.17;;
10801;SDS011;5453;50.852;7.102;2022-08-21T05:35:14;7.72;;;3.70;;
10801;SDS011;5453;50.852;7.102;2022-08-21T05:37:47;6.35;;;3.63;;
10801;SDS011;5453;50.852;7.102;2022-08-21T05:40:19;7.32;;;3.58;;
10801;SDS011;5453;50.852;7.102;2022-08-21T05:42:53;7.50;;;3.80;;
10801;SDS011;5453;50.852;7.102;2022-08-21T05:45:27;8.05;;;3.45;;
10801;SDS011;5453;50.852;7.102;2022-08-21T05:48:07;8.00;;;3.20;;
10801;SDS011;5453;50.852;7.102;2022-08-21T05:50:42;5.45;;;3.40;;
10801;SDS011;5453;50.852;7.102;2022-08-21T05:53:16;6.03;;;2.85;;
10801;SDS011;5453;50.852;7.102;2022-08-21T05:55:50;6.20;;;3.03;;
10801;SDS011;5453;50.852;7.102;2022-08-21T05:58:25;4.63;;;3.03;;
10801;SDS011;5453;50.852;7.102;2022-08-21T06:03:32;4.53;;;2.80;;
10801;SDS011;5453;50.852;7.102;2022-08-21T06:06:06;5.55;;;2.88;;
10801;SDS011;5453;50.852;7.102;2022-08-21T06:08:39;5.35;;;2.75;;
10801;SDS011;5453;50.852;7.102;2022-08-21T06:11:11;6.65;;;2.90;;
10801;SDS011;5453;50.852;7.102;2022-08-21T06:13:45;6.45;;;3.38;;
10801;SDS011;5453;50.852;7.102;2022-08-21T06:16:17;4.00;;;2.67;;
10801;SDS011;5453;50.852;7.102;2022-08-21T06:18:49;4.60;;;2.65;;
10801;SDS011;5453;50.852;7.102;2022-08-21T06:21:22;5.25;;;3.00;;
10801;SDS011;5453;50.852;7.102;2022-08-21T06:23:54;4.55;;;2.13;;
10801;SDS011;5453;50.852;7.102;2022-08-21T06:26:26;5.68;;;2.60;;
10801;SDS011;5453;50.852;7.102;2022-08-21T06:29:00;3.55;;;2.50;;
10801;SDS011;5453;50.852;7.102;2022-08-21T06:31:33;5.97;;;2.78;;
10801;SDS011;5453;50.852;7.102;2022-08-21T06:34:05;3.53;;;2.35;;
10801;SDS011;5453;50.852;7.102;2022-08-21T06:36:37;4.15;;;2.30;;
10801;SDS011;5453;50.852;7.102;2022-08-21T06:39:10;5.00;;;2.60;;
10801;SDS011;5453;50.852;7.102;2022-08-21T06:41:43;5.47;;;2.63;;
10801;SDS011;5453;50.852;7.102;2022-08-21T06:44:17;6.82;;;3.22;;
10801;SDS011;5453;50.852;7.102;2022-08-21T06:46:49;4.63;;;3.20;;
10801;SDS011;5453;50.852;7.102;2022-08-21T06:49:21;8.40;;;3.78;;
10801;SDS011;5453;50.852;7.102;2022-08-21T06:51:54;5.93;;;3.05;;
10801;SDS011;5453;50.852;7.102;2022-08-21T06:54:26;6.22;;;3.08;;
10801;SDS011;5453;50.852;7.102;2022-08-21T06:56:58;5.55;;;3.30;;
10801;SDS011;5453;50.852;7.102;2022-08-21T06:59:32;5.05;;;2.83;;
10801;SDS011;5453;50.852;7.102;2022-08-21T07:02:04;7.32;;;3.25;;
10801;SDS011;5453;50.852;7.102;2022-08-21T07:04:37;5.82;;;3.03;;
10801;SDS011;5453;50.852;7.102;2022-08-21T07:07:10;6.53;;;3.60;;
10801;SDS011;5453;50.852;7.102;2022-08-21T07:09:42;6.25;;;2.97;;
10801;SDS011;5453;50.852;7.102;2022-08-21T07:12:14;7.25;;;3.15;;
10801;SDS011;5453;50.852;7.102;2022-08-21T07:14:48;6.25;;;2.92;;
10801;SDS011;5453;50.852;7.102;2022-08-21T07:17:20;6.40;;;2.92;;
10801;SDS011;5453;50.852;7.102;2022-08-21T07:19:52;7.95;;;3.03;;
10801;SDS011;5453;50.852;7.102;2022-08-21T07:22:25;8.55;;;3.17;;
10801;SDS011;5453;50.852;7.102;2022-08-21T07:24:58;4.20;;;2.67;;
10801;SDS011;5453;50.852;7.102;2022-08-21T07:27:30;4.88;;;2.97;;
10801;SDS011;5453;50.852;7.102;2022-08-21T07:30:04;6.28;;;2.80;;
10801;SDS011;5453;50.852;7.102;2022-08-21T07:32:38;6.65;;;3.10;;
10801;SDS011;5453;50.852;7.102;2022-08-21T07:35:10;5.18;;;3.20;;
10801;SDS011;5453;50.852;7.102;2022-08-21T07:37:43;7.40;;;2.97;;
10801;SDS011;5453;50.852;7.102;2022-08-21T07:40:15;5.32;;;2.45;;
10801;SDS011;5453;50.852;7.102;2022-08-21T07:42:48;7.10;;;3.30;;
10801;SDS011;5453;50.852;7.102;2022-08-21T07:45:23;6.32;;;2.90;;
10801;SDS011;5453;50.852;7.102;2022-08-21T07:47:56;6.22;;;2.40;;
10801;SDS011;5453;50.852;7.102;2022-08-21T07:50:28;5.85;;;2.22;;
10801;SDS011;5453;50.852;7.102;2022-08-21T07:53:01;4.38;;;2.38;;
10801;SDS011;5453;50.852;7.102;2022-08-21T07:55:34;4.43;;;2.50;;
10801;SDS011;5453;50.852;7.102;2022-08-21T07:58:06;7.78;;;2.33;;
10801;SDS011;5453;50.852;7.102;2022-08-21T08:00:40;5.05;;;2.40;;
10801;SDS011;5453;50.852;7.102;2022-08-21T08:05:44;3.72;;;2.00;;
10801;SDS011;5453;50.852;7.102;2022-08-21T08:08:17;4.03;;;2.15;;
10801;SDS011;5453;50.852;7.102;2022-08-21T08:10:49;6.05;;;2.00;;
10801;SDS011;5453;50.852;7.102;2022-08-21T08:13:22;6.00;;;2.20;;
10801;SDS011;5453;50.852;7.102;2022-08-21T08:15:56;4.85;;;2.10;;
10801;SDS011;5453;50.852;7.102;2022-08-21T08:18:28;4.93;;;1.90;;
10801;SDS011;5453;50.852;7.102;2022-08-21T08:21:00;3.53;;;1.63;;
10801;SDS011;5453;50.852;7.102;2022-08-21T08:23:33;5.72;;;1.88;;
10801;SDS011;5453;50.852;7.102;2022-08-21T08:26:05;3.88;;;1.80;;
10801;SDS011;5453;50.852;7.102;2022-08-21T08:28:38;4.82;;;1.80;;
10801;SDS011;5453;50.852;7.102;2022-08-21T08:31:12;4.00;;;1.80;;
10801;SDS011;5453;50.852;7.102;2022-08-21T08:36:17;4.70;;;1.60;;
10801;SDS011;5453;50.852;7.102;2022-08-21T08:38:50;3.97;;;1.65;;
10801;SDS011;5453;50.852;7.102;2022-08-21T08:41:22;4.72;;;1.65;;
10801;SDS011;5453;50.852;7.102;2022-08-21T08:43:55;3.95;;;1.60;;
10801;SDS011;5453;50.852;7.102;2022-08-21T08:46:35;5.05;;;1.52;;
10801;SDS011;5453;50.852;7.102;2022-08-21T08:51:48;4.45;;;1.60;;
10801;SDS011;5453;50.852;7.102;2022-08-21T08:54:26;4.15;;;1.52;;
10801;SDS011;5453;50.852;7.102;2022-08-21T08:57:09;4.40;;;1.65;;
10801;SDS011;5453;50.852;7.102;2022-08-21T08:59:47;3.47;;;1.50;;
10801;SDS011;5453;50.852;7.102;2022-08-21T09:02:23;3.83;;;1.50;;
10801;SDS011;5453;50.852;7.102;2022-08-21T09:04:58;3.47;;;1.27;;
10801;SDS011;5453;50.852;7.102;2022-08-21T09:07:34;4.30;;;1.52;;
10801;SDS011;5453;50.852;7.102;2022-08-21T09:10:17;3.42;;;1.35;;
10801;SDS011;5453;50.852;7.102;2022-08-21T09:12:56;3.40;;;1.60;;
10801;SDS011;5453;50.852;7.102;2022-08-21T09:15:42;4.93;;;1.50;;
10801;SDS011;5453;50.852;7.102;2022-08-21T09:18:29;2.78;;;1.50;;
10801;SDS011;5453;50.852;7.102;2022-08-21T09:21:16;4.07;;;1.42;;
10801;SDS011;5453;50.852;7.102;2022-08-21T09:26:36;2.80;;;1.23;;
10801;SDS011;5453;50.852;7.102;2022-08-21T09:29:21;3.63;;;1.40;;
10801;SDS011;5453;50.852;7.102;2022-08-21T09:31:59;3.25;;;1.20;;
10801;SDS011;5453;50.852;7.102;2022-08-21T09:34:33;2.22;;;1.30;;
10801;SDS011;5453;50.852;7.102;2022-08-21T09:37:14;1.98;;;1.20;;
10801;SDS011;5453;50.852;7.102;2022-08-21T09:39:49;2.33;;;1.35;;
10801;SDS011;5453;50.852;7.102;2022-08-21T09:42:22;3.13;;;1.10;;
10801;SDS011;5453;50.852;7.102;2022-08-21T09:45:05;3.85;;;1.13;;
10801;SDS011;5453;50.852;7.102;2022-08-21T09:47:45;3.38;;;1.33;;
10801;SDS011;5453;50.852;7.102;2022-08-21T09:50:20;4.47;;;1.33;;
10801;SDS011;5453;50.852;7.102;2022-08-21T09:52:56;3.65;;;1.40;;
10801;SDS011;5453;50.852;7.102;2022-08-21T09:55:31;3.33;;;1.20;;
10801;SDS011;5453;50.852;7.102;2022-08-21T09:58:29;4.60;;;1.42;;
10801;SDS011;5453;50.852;7.102;2022-08-21T10:01:04;2.15;;;1.10;;
10801;SDS011;5453;50.852;7.102;2022-08-21T10:03:43;1.98;;;0.90;;
10801;SDS011;5453;50.852;7.102;2022-08-21T10:06:22;2.40;;;1.33;;
10801;SDS011;5453;50.852;7.102;2022-08-21T10:09:04;4.18;;;1.27;;
10801;SDS011;5453;50.852;7.102;2022-08-21T10:11:40;2.33;;;0.95;;
10801;SDS011;5453;50.852;7.102;2022-08-21T10:14:25;4.55;;;1.35;;
10801;SDS011;5453;50.852;7.102;2022-08-21T10:17:15;2.90;;;1.02;;
10801;SDS011;5453;50.852;7.102;2022-08-21T10:19:56;4.18;;;1.30;;
10801;SDS011;5453;50.852;7.102;2022-08-21T10:22:41;2.25;;;1.13;;
10801;SDS011;5453;50.852;7.102;2022-08-21T10:25:23;3.20;;;1.25;;
10801;SDS011;5453;50.852;7.102;2022-08-21T10:28:05;1.70;;;1.10;;
10801;SDS011;5453;50.852;7.102;2022-08-21T10:30:51;3.63;;;1.52;;
10801;SDS011;5453;50.852;7.102;2022-08-21T10:33:32;3.22;;;1.10;;
10801;SDS011;5453;50.852;7.102;2022-08-21T10:36:25;2.00;;;1.00;;
10801;SDS011;5453;50.852;7.102;2022-08-21T10:39:10;2.90;;;1.10;;
10801;SDS011;5453;50.852;7.102;2022-08-21T10:41:59;2.67;;;1.10;;
10801;SDS011;5453;50.852;7.102;2022-08-21T10:44:49;3.38;;;1.30;;
10801;SDS011;5453;50.852;7.102;2022-08-21T10:47:42;4.28;;;1.35;;
10801;SDS011;5453;50.852;7.102;2022-08-21T10:50:23;1.90;;;0.88;;
10801;SDS011;5453;50.852;7.102;2022-08-21T10:53:08;1.85;;;1.02;;
10801;SDS011;5453;50.852;7.102;2022-08-21T10:56:02;3.15;;;0.85;;
10801;SDS011;5453;50.852;7.102;2022-08-21T10:58:46;2.45;;;1.00;;
10801;SDS011;5453;50.852;7.102;2022-08-21T11:01:32;2.55;;;1.20;;
10801;SDS011;5453;50.852;7.102;2022-08-21T11:04:16;4.97;;;1.48;;
10801;SDS011;5453;50.852;7.102;2022-08-21T11:07:03;4.13;;;1.30;;
10801;SDS011;5453;50.852;7.102;2022-08-21T11:09:42;2.05;;;1.05;;
10801;SDS011;5453;50.852;7.102;2022-08-21T11:12:19;2.30;;;0.93;;
10801;SDS011;5453;50.852;7.102;2022-08-21T11:14:58;3.15;;;0.93;;
10801;SDS011;5453;50.852;7.102;2022-08-21T11:17:38;2.03;;;1.10;;
10801;SDS011;5453;50.852;7.102;2022-08-21T11:20:22;1.98;;;0.88;;
10801;SDS011;5453;50.852;7.102;2022-08-21T11:23:03;3.20;;;1.20;;
10801;SDS011;5453;50.852;7.102;2022-08-21T11:25:45;1.88;;;1.10;;
10801;SDS011;5453;50.852;7.102;2022-08-21T11:28:26;2.25;;;0.85;;
10801;SDS011;5453;50.852;7.102;2022-08-21T11:31:07;4.05;;;1.00;;
10801;SDS011;5453;50.852;7.102;2022-08-21T11:33:57;3.10;;;1.10;;
10801;SDS011;5453;50.852;7.102;2022-08-21T11:36:45;4.43;;;1.23;;
10801;SDS011;5453;50.852;7.102;2022-08-21T11:39:25;2.33;;;1.13;;
10801;SDS011;5453;50.852;7.102;2022-08-21T11:42:07;1.70;;;0.85;;
10801;SDS011;5453;50.852;7.102;2022-08-21T11:44:54;1.98;;;0.95;;
10801;SDS011;5453;50.852;7.102;2022-08-21T11:47:42;3.28;;;1.08;;
10801;SDS011;5453;50.852;7.102;2022-08-21T11:50:26;3.83;;;1.08;;
10801;SDS011;5453;50.852;7.102;2022-08-21T11:53:01;3.95;;;1.13;;
10801;SDS011;5453;50.852;7.102;2022-08-21T11:55:41;1.77;;;0.98;;
10801;SDS011;5453;50.852;7.102;2022-08-21T11:58:20;2.30;;;0.90;;
10801;SDS011;5453;50.852;7.102;2022-08-21T12:00:59;3.67;;;1.00;;
10801;SDS011;5453;50.852;7.102;2022-08-21T12:03:38;2.75;;;0.80;;
10801;SDS011;5453;50.852;7.102;2022-08-21T12:06:13;4.65;;;1.10;;
10801;SDS011;5453;50.852;7.102;2022-08-21T12:08:46;2.97;;;0.75;;
10801;SDS011;5453;50.852;7.102;2022-08-21T12:11:30;2.95;;;1.00;;
10801;SDS011;5453;50.852;7.102;2022-08-21T12:14:11;3.35;;;0.98;;
10801;SDS011;5453;50.852;7.102;2022-08-21T12:16:48;3.22;;;0.98;;
10801;SDS011;5453;50.852;7.102;2022-08-21T12:19:28;2.45;;;0.77;;
10801;SDS011;5453;50.852;7.102;2022-08-21T12:22:10;3.35;;;1.20;;
10801;SDS011;5453;50.852;7.102;2022-08-21T12:24:45;2.20;;;1.00;;
10801;SDS011;5453;50.852;7.102;2022-08-21T12:27:22;2.72;;;0.88;;
10801;SDS011;5453;50.852;7.102;2022-08-21T12:30:01;3.40;;;0.90;;
10801;SDS011;5453;50.852;7.102;2022-08-21T12:32:44;2.25;;;0.93;;
10801;SDS011;5453;50.852;7.102;2022-08-21T12:35:27;3.78;;;1.23;;
10801;SDS011;5453;50.852;7.102;2022-08-21T12:38:07;3.58;;;1.13;;
10801;SDS011;5453;50.852;7.102;2022-08-21T12:40:48;2.47;;;1.02;;
10801;SDS011;5453;50.852;7.102;2022-08-21T12:43:28;3.25;;;0.90;;
10801;SDS011;5453;50.852;7.102;2022-08-21T12:46:04;3.72;;;1.00;;
10801;SDS011;5453;50.852;7.102;2022-08-21T12:48:41;1.77;;;0.70;;
10801;SDS011;5453;50.852;7.102;2022-08-21T12:51:22;2.28;;;0.90;;
10801;SDS011;5453;50.852;7.102;2022-08-21T12:53:59;2.85;;;1.02;;
10801;SDS011;5453;50.852;7.102;2022-08-21T12:56:32;2.60;;;0.90;;
10801;SDS011;5453;50.852;7.102;2022-08-21T12:59:06;3.33;;;1.10;;
10801;SDS011;5453;50.852;7.102;2022-08-21T13:01:44;3.92;;;1.30;;
10801;SDS011;5453;50.852;7.102;2022-08-21T13:04:22;2.53;;;1.10;;
10801;SDS011;5453;50.852;7.102;2022-08-21T13:07:04;2.40;;;1.00;;
10801;SDS011;5453;50.852;7.102;2022-08-21T13:09:42;3.33;;;1.10;;
10801;SDS011;5453;50.852;7.102;2022-08-21T13:12:19;1.65;;;0.95;;
10801;SDS011;5453;50.852;7.102;2022-08-21T13:14:55;3.72;;;0.90;;
10801;SDS011;5453;50.852;7.102;2022-08-21T13:17:30;2.42;;;0.80;;
10801;SDS011;5453;50.852;7.102;2022-08-21T13:20:08;1.85;;;0.98;;
10801;SDS011;5453;50.852;7.102;2022-08-21T13:22:52;1.70;;;0.77;;
10801;SDS011;5453;50.852;7.102;2022-08-21T13:25:26;2.33;;;0.80;;
10801;SDS011;5453;50.852;7.102;2022-08-21T13:28:04;2.40;;;1.17;;
10801;SDS011;5453;50.852;7.102;2022-08-21T13:30:40;2.55;;;0.93;;
10801;SDS011;5453;50.852;7.102;2022-08-21T13:33:16;2.22;;;0.80;;
10801;SDS011;5453;50.852;7.102;2022-08-21T13:36:00;3.05;;;0.90;;
10801;SDS011;5453;50.852;7.102;2022-08-21T13:38:37;3.38;;;1.00;;
10801;SDS011;5453;50.852;7.102;2022-08-21T13:41:16;2.17;;;0.90;;
10801;SDS011;5453;50.852;7.102;2022-08-21T13:43:56;1.35;;;0.80;;
10801;SDS011;5453;50.852;7.102;2022-08-21T13:46:32;2.83;;;0.80;;
10801;SDS011;5453;50.852;7.102;2022-08-21T13:49:07;2.50;;;0.80;;
10801;SDS011;5453;50.852;7.102;2022-08-21T13:54:15;3.97;;;0.80;;
10801;SDS011;5453;50.852;7.102;2022-08-21T13:56:54;2.50;;;1.30;;
10801;SDS011;5453;50.852;7.102;2022-08-21T13:59:28;3.40;;;1.27;;
10801;SDS011;5453;50.852;7.102;2022-08-21T14:02:08;1.77;;;0.80;;
10801;SDS011;5453;50.852;7.102;2022-08-21T14:04:48;2.42;;;0.90;;
10801;SDS011;5453;50.852;7.102;2022-08-21T14:07:29;3.05;;;0.93;;
10801;SDS011;5453;50.852;7.102;2022-08-21T14:10:07;2.72;;;1.10;;
10801;SDS011;5453;50.852;7.102;2022-08-21T14:12:47;2.05;;;0.82;;
10801;SDS011;5453;50.852;7.102;2022-08-21T14:15:23;1.88;;;0.80;;
10801;SDS011;5453;50.852;7.102;2022-08-21T14:18:07;2.55;;;1.00;;
10801;SDS011;5453;50.852;7.102;2022-08-21T14:20:45;1.13;;;0.75;;
10801;SDS011;5453;50.852;7.102;2022-08-21T14:23:24;2.35;;;0.80;;
10801;SDS011;5453;50.852;7.102;2022-08-21T14:25:58;1.38;;;0.77;;
10801;SDS011;5453;50.852;7.102;2022-08-21T14:28:34;2.28;;;1.00;;
10801;SDS011;5453;50.852;7.102;2022-08-21T14:31:12;2.40;;;0.80;;
10801;SDS011;5453;50.852;7.102;2022-08-21T14:33:48;1.85;;;1.10;;
10801;SDS011;5453;50.852;7.102;2022-08-21T14:36:20;1.20;;;1.00;;
10801;SDS011;5453;50.852;7.102;2022-08-21T14:38:54;1.67;;;0.80;;
10801;SDS011;5453;50.852;7.102;2022-08-21T14:41:27;2.55;;;0.93;;
10801;SDS011;5453;50.852;7.102;2022-08-21T14:44:00;1.20;;;0.80;;
10801;SDS011;5453;50.852;7.102;2022-08-21T14:46:34;2.00;;;0.80;;
10801;SDS011;5453;50.852;7.102;2022-08-21T14:49:06;1.40;;;0.63;;
10801;SDS011;5453;50.852;7.102;2022-08-21T14:51:39;2.47;;;0.82;;
10801;SDS011;5453;50.852;7.102;2022-08-21T14:54:12;2.13;;;1.00;;
10801;SDS011;5453;50.852;7.102;2022-08-21T14:56:44;3.72;;;1.23;;
10801;SDS011;5453;50.852;7.102;2022-08-21T14:59:16;2.38;;;1.05;;
10801;SDS011;5453;50.852;7.102;2022-08-21T15:01:50;2.50;;;0.80;;
10801;SDS011;5453;50.852;7.102;2022-08-21T15:04:22;3.47;;;1.10;;
10801;SDS011;5453;50.852;7.102;2022-08-21T15:06:54;2.60;;;1.05;;
10801;SDS011;5453;50.852;7.102;2022-08-21T15:09:28;2.72;;;1.10;;
10801;SDS011;5453;50.852;7.102;2022-08-21T15:12:00;2.00;;;0.82;;
10801;SDS011;5453;50.852;7.102;2022-08-21T15:14:34;1.88;;;0.80;;
10801;SDS011;5453;50.852;7.102;2022-08-21T15:17:11;2.83;;;1.10;;
10801;SDS011;5453;50.852;7.102;2022-08-21T15:19:43;1.98;;;1.00;;
10801;SDS011;5453;50.852;7.102;2022-08-21T15:22:16;2.95;;;0.95;;
10801;SDS011;5453;50.852;7.102;2022-08-21T15:24:49;5.75;;;1.30;;
10801;SDS011;5453;50.852;7.102;2022-08-21T15:27:21;3.65;;;1.58;;
10801;SDS011;5453;50.852;7.102;2022-08-21T15:29:54;4.90;;;1.40;;
10801;SDS011;5453;50.852;7.102;2022-08-21T15:32:26;2.63;;;1.40;;
10801;SDS011;5453;50.852;7.102;2022-08-21T15:35:00;2.25;;;1.10;;
10801;SDS011;5453;50.852;7.102;2022-08-21T15:37:33;1.42;;;1.10;;
10801;SDS011;5453;50.852;7.102;2022-08-21T15:40:08;2.72;;;0.95;;
10801;SDS011;5453;50.852;7.102;2022-08-21T15:42:41;3.33;;;1.02;;
10801;SDS011;5453;50.852;7.102;2022-08-21T15:45:14;3.17;;;1.27;;
10801;SDS011;5453;50.852;7.102;2022-08-21T15:47:46;2.63;;;1.02;;
10801;SDS011;5453;50.852;7.102;2022-08-21T15:50:21;1.73;;;0.95;;
10801;SDS011;5453;50.852;7.102;2022-08-21T15:52:54;3.25;;;1.33;;
10801;SDS011;5453;50.852;7.102;2022-08-21T15:55:28;2.40;;;1.20;;
10801;SDS011;5453;50.852;7.102;2022-08-21T15:58:00;1.88;;;1.08;;
10801;SDS011;5453;50.852;7.102;2022-08-21T16:00:35;2.15;;;0.90;;
10801;SDS011;5453;50.852;7.102;2022-08-21T16:03:07;2.67;;;0.95;;
10801;SDS011;5453;50.852;7.102;2022-08-21T16:05:42;1.77;;;0.98;;
10801;SDS011;5453;50.852;7.102;2022-08-21T16:08:14;2.63;;;1.17;;
10801;SDS011;5453;50.852;7.102;2022-08-21T16:10:49;1.60;;;0.73;;
10801;SDS011;5453;50.852;7.102;2022-08-21T16:13:23;4.03;;;0.85;;